This is the latest recevied weather packets stored in our database for station/object WX5II-2. If no packets are shown the sender has not sent any weather packets the latest 1 day(s).
| Time | Temp. | Humidity | Pressure | Rain* | Wind** | Luminosity | Snow |
|---|---|---|---|---|---|---|---|
| 1778037346 | 26.67° C | 59% | 1006.4 hPa | 0 mm | 0 m/s | - | - |
| 1778036723 | 26.67° C | 58% | 1006.4 hPa | 0 mm | 0 m/s | - | - |
| 1778036100 | 26.67° C | 58% | 1006.4 hPa | 0 mm | 0 m/s | - | - |
| 1778035477 | 26.67° C | 58% | 1006.4 hPa | 0 mm | 0 m/s | - | - |
| 1778034853 | 26.67° C | 58% | 1006.4 hPa | 0 mm | 0 m/s | - | - |
| 1778034230 | 26.67° C | 58% | 1005.4 hPa | 0 mm | 0 m/s | - | - |
| 1778032984 | 27.22° C | 54% | 1005.4 hPa | 0 mm | 0 m/s | - | - |
| 1778031735 | 28.33° C | 50% | 1005.4 hPa | 0 mm | 0 m/s | - | - |
| 1778031112 | 28.33° C | 47% | 1005.4 hPa | 0 mm | 0 m/s | - | - |
| 1778030488 | 28.89° C | 45% | 1004.4 hPa | 0 mm | 0 m/s | - | - |
| 1778029865 | 29.44° C | 44% | 1004.4 hPa | 0 mm | 0 m/s | - | - |
| 1778029240 | 30° C | 43% | 1004.4 hPa | 0 mm | 0 m/s | - | - |
| 1778028617 | 30° C | 43% | 1004.4 hPa | 0 mm | 0 m/s | - | - |
| 1778027994 | 30.56° C | 43% | 1004.4 hPa | 0 mm | 0 m/s | - | - |
| 1778025541 | 31.67° C | 37% | 1003.4 hPa | 0 mm | 0 m/s | - | - |
| 1778024918 | 31.67° C | 37% | 1003.4 hPa | 0 mm | 0 m/s | - | - |
| 1778024616 | 32.78° C | 36% | 1003.4 hPa | 0 mm | 0 m/s | - | - |
| 1778024616 | 32.78° C | 36% | 1003.4 hPa | 0 mm | 0 m/s | - | - |
| 1778024294 | 32.22° C | 37% | 1003.4 hPa | 0 mm | 0 m/s | - | - |
| 1778023672 | 32.22° C | 36% | 1003.4 hPa | 0 mm | 0 m/s | - | - |
| 1778022424 | 32.78° C | 37% | 1003.4 hPa | 0 mm | 0 m/s | - | - |
| 1778021800 | 32.78° C | 36% | 1003.4 hPa | 0 mm | 0 m/s | - | - |
| 1778021176 | 32.78° C | 36% | 1003.4 hPa | 0 mm | 0 m/s | - | - |
| 1778020554 | 32.78° C | 37% | 1003.4 hPa | 0 mm | 0 m/s | - | - |
| 1778019928 | 32.78° C | 36% | 1003.4 hPa | 0 mm | 0 m/s | - | - |
* Rain latest hour (hover to see other rain measurements)
** Current wind speed in m/s (hover to see current wind gust speed)